Time;durP1;ratioP1;P1;durP2;ratioP2;P2;SDS_P1;SDS_P2;PMS_P1;PMS_P2;Temp;Humidity;BMP_temperature;BMP_pressure;BME280_temperature;BME280_humidity;BME280_pressure;Samples;Min_cycle;Max_cycle;Signal;HPM_P1;HPM_P2
2021/06/13 00:01:13;;;;;;;4.50;4.07;;;19.70;70.00;;;;;;5072699;28;20029;-78
2021/06/13 00:03:39;;;;;;;7.93;4.60;;;19.70;70.10;;;;;;5072449;28;20512;-78
2021/06/13 00:06:05;;;;;;;4.40;4.00;;;19.70;70.20;;;;;;5072573;28;20016;-79
2021/06/13 00:08:31;;;;;;;6.40;3.58;;;19.70;70.30;;;;;;5072408;28;20024;-78
2021/06/13 00:10:57;;;;;;;4.60;3.85;;;19.70;70.40;;;;;;5072462;28;20024;-79
2021/06/13 00:13:24;;;;;;;5.18;4.35;;;19.70;70.60;;;;;;5072489;28;20027;-79
2021/06/13 00:15:50;;;;;;;4.57;4.15;;;19.70;71.10;;;;;;5071985;28;20037;-78
2021/06/13 00:18:16;;;;;;;4.05;3.67;;;19.50;71.40;;;;;;5072599;28;20040;-79
2021/06/13 00:20:41;;;;;;;5.28;3.63;;;19.50;71.40;;;;;;5072724;28;20469;-78
2021/06/13 00:23:07;;;;;;;8.20;5.05;;;19.50;71.40;;;;;;5072541;28;20039;-79
2021/06/13 00:25:34;;;;;;;7.30;4.75;;;19.50;71.80;;;;;;5072523;28;20029;-79
2021/06/13 00:27:59;;;;;;;7.93;4.70;;;19.40;72.10;;;;;;5072658;28;20451;-79
2021/06/13 00:30:25;;;;;;;6.95;4.95;;;19.20;72.70;;;;;;5072482;28;20029;-79
2021/06/13 00:32:51;;;;;;;7.43;5.28;;;19.10;73.20;;;;;;5072592;28;20117;-79
2021/06/13 00:35:19;;;;;;;4.53;4.20;;;19.10;73.60;;;;;;5072429;28;20075;-79
2021/06/13 00:37:45;;;;;;;5.65;4.00;;;19.10;73.40;;;;;;5072640;28;20074;-79
2021/06/13 00:40:11;;;;;;;5.18;4.63;;;19.20;73.10;;;;;;5071095;28;20024;-80
2021/06/13 00:42:38;;;;;;;5.78;4.30;;;19.20;72.90;;;;;;5072230;28;20033;-77
2021/06/13 00:45:05;;;;;;;5.57;4.57;;;19.30;73.00;;;;;;5072174;28;20023;-77
2021/06/13 00:47:31;;;;;;;6.38;4.30;;;19.30;73.10;;;;;;5072220;28;20052;-78
2021/06/13 00:49:56;;;;;;;5.88;4.75;;;19.10;73.30;;;;;;5072035;28;20377;-79
2021/06/13 00:52:26;;;;;;;8.35;5.15;;;19.00;73.70;;;;;;5071803;28;20021;-78
2021/06/13 00:54:51;;;;;;;5.57;4.68;;;18.90;74.10;;;;;;5071978;28;20052;-79
2021/06/13 00:57:17;;;;;;;8.05;5.40;;;19.00;73.90;;;;;;5071854;28;20063;-77
2021/06/13 00:59:43;;;;;;;8.02;6.00;;;18.90;73.70;;;;;;5071939;28;20027;-80
2021/06/13 01:02:08;;;;;;;7.57;5.72;;;18.80;73.90;;;;;;5073298;28;20028;-80
2021/06/13 01:04:34;;;;;;;13.57;6.50;;;18.70;74.40;;;;;;5075605;28;20052;-80
2021/06/13 01:07:29;;;;;;;7.25;5.35;;;18.60;74.50;;;;;;5075439;28;20042;-80
2021/06/13 01:10:34;;;;;;;5.13;4.63;;;18.70;74.40;;;;;;5075552;28;20061;-81
2021/06/13 01:13:21;;;;;;;9.10;5.47;;;18.80;74.20;;;;;;5075493;28;20024;-81
2021/06/13 01:15:55;;;;;;;9.57;5.70;;;18.80;73.80;;;;;;5075346;28;20035;-80
2021/06/13 01:18:48;;;;;;;10.60;6.20;;;18.80;73.60;;;;;;5075324;28;20016;-80
2021/06/13 01:21:21;;;;;;;7.38;5.63;;;18.80;73.40;;;;;;5078467;28;20020;-79
2021/06/13 01:24:28;;;;;;;7.18;5.78;;;18.80;72.70;;;;;;5075125;28;20090;-80
2021/06/13 01:27:03;;;;;;;;;;;18.80;71.60;;;;;;5053214;28;20105;-80
2021/06/13 01:29:44;;;;;;;9.23;7.00;;;18.70;70.70;;;;;;5052846;28;19912;-80
2021/06/13 01:32:24;;;;;;;8.60;6.18;;;18.60;69.40;;;;;;5067192;28;20037;-79
2021/06/13 01:34:57;;;;;;;9.35;6.25;;;18.60;69.10;;;;;;5074959;28;20025;-79
2021/06/13 01:37:26;;;;;;;9.40;6.13;;;18.70;68.70;;;;;;5073693;28;20047;-78
2021/06/13 01:39:58;;;;;;;10.45;6.00;;;18.70;68.60;;;;;;5073505;28;20027;-79
2021/06/13 01:42:25;;;;;;;10.73;7.60;;;18.70;68.30;;;;;;5074720;28;20048;-80
2021/06/13 01:44:58;;;;;;;12.10;6.72;;;18.60;67.30;;;;;;5074762;28;20021;-80
2021/06/13 01:47:25;;;;;;;9.45;6.38;;;18.70;67.30;;;;;;5074536;28;20127;-80
2021/06/13 01:49:53;;;;;;;7.82;5.32;;;18.60;66.80;;;;;;5074613;28;20028;-82
2021/06/13 01:52:20;;;;;;;8.70;6.57;;;18.60;66.90;;;;;;5074437;28;20031;-82
2021/06/13 01:54:46;;;;;;;13.80;7.82;;;18.60;66.20;;;;;;5074644;28;20027;-80
2021/06/13 01:57:13;;;;;;;8.45;5.45;;;18.40;66.00;;;;;;5074477;28;20028;-81
2021/06/13 01:59:40;;;;;;;8.43;6.07;;;18.40;66.50;;;;;;5074499;28;20090;-81
2021/06/13 02:02:07;;;;;;;8.93;6.75;;;18.40;66.40;;;;;;5074328;28;20025;-83
2021/06/13 02:04:34;;;;;;;10.40;7.00;;;18.40;66.40;;;;;;5074148;28;20039;-81
2021/06/13 02:07:00;;;;;;;7.75;5.72;;;18.50;66.40;;;;;;5074308;28;20028;-80
2021/06/13 02:09:27;;;;;;;12.63;6.80;;;18.50;65.70;;;;;;5074202;28;20047;-81
2021/06/13 02:11:56;;;;;;;12.65;6.70;;;18.50;65.40;;;;;;5074201;28;20083;-80
2021/06/13 02:14:24;;;;;;;9.93;5.20;;;18.40;65.10;;;;;;5072639;28;20027;-81
2021/06/13 02:16:52;;;;;;;11.35;6.25;;;18.40;65.30;;;;;;5074214;28;20074;-81
2021/06/13 02:19:21;;;;;;;10.80;7.35;;;18.40;65.00;;;;;;5074018;28;20024;-81
2021/06/13 02:21:54;;;;;;;10.00;7.03;;;18.40;65.00;;;;;;5074014;28;20044;-80
2021/06/13 02:24:20;;;;;;;9.48;6.05;;;18.20;65.00;;;;;;5073940;28;20099;-80
2021/06/13 02:26:46;;;;;;;7.88;6.22;;;18.10;65.00;;;;;;5072681;28;20382;-79
2021/06/13 02:29:14;;;;;;;13.48;7.38;;;18.20;65.10;;;;;;5072532;28;20020;-80
2021/06/13 02:31:42;;;;;;;9.27;6.78;;;18.00;65.30;;;;;;5073729;28;20024;-80
2021/06/13 02:34:09;;;;;;;9.38;6.13;;;17.80;65.50;;;;;;5072599;28;20112;-81
2021/06/13 02:36:35;;;;;;;14.90;7.43;;;17.90;66.00;;;;;;5073860;28;20027;-82
2021/06/13 02:39:03;;;;;;;15.07;7.10;;;17.80;65.40;;;;;;5073627;28;20025;-82
2021/06/13 02:41:28;;;;;;;16.17;7.30;;;17.80;65.50;;;;;;5073621;28;20477;-81
2021/06/13 02:43:54;;;;;;;9.20;6.78;;;17.80;65.60;;;;;;5073635;28;20093;-81
2021/06/13 02:46:20;;;;;;;10.88;6.57;;;17.70;65.80;;;;;;5073296;28;20045;-82
2021/06/13 02:48:46;;;;;;;9.98;6.60;;;17.80;65.70;;;;;;5073655;28;20159;-79
2021/06/13 02:51:19;;;;;;;11.27;7.10;;;17.70;65.20;;;;;;5074555;28;20110;-80
2021/06/13 02:53:48;;;;;;;9.95;5.90;;;17.70;65.60;;;;;;5073465;28;20016;-80
2021/06/13 02:56:32;;;;;;;10.35;7.47;;;17.70;65.80;;;;;;5073115;28;20027;-80
2021/06/13 02:59:03;;;;;;;9.80;5.43;;;17.70;65.70;;;;;;5073347;28;20021;-80
2021/06/13 03:01:30;;;;;;;10.10;6.35;;;17.80;65.60;;;;;;5071821;28;20107;-80
2021/06/13 03:03:58;;;;;;;13.13;6.88;;;17.80;65.50;;;;;;5073164;28;20074;-80
2021/06/13 03:06:24;;;;;;;9.75;6.75;;;17.80;65.50;;;;;;5073051;28;20047;-80
2021/06/13 03:08:51;;;;;;;7.35;5.75;;;17.70;65.60;;;;;;5073116;28;20021;-80
2021/06/13 03:11:18;;;;;;;8.55;5.35;;;17.70;65.90;;;;;;5072978;28;20482;-79
2021/06/13 03:13:47;;;;;;;8.80;5.15;;;17.80;65.80;;;;;;5073028;28;20024;-82
2021/06/13 03:16:13;;;;;;;11.68;5.30;;;17.80;65.80;;;;;;5072978;28;20028;-78
2021/06/13 03:18:42;;;;;;;7.63;5.72;;;17.80;65.50;;;;;;5073026;28;20362;-78
2021/06/13 03:21:10;;;;;;;8.48;5.38;;;17.80;65.40;;;;;;5072901;28;20016;-78
2021/06/13 03:23:36;;;;;;;8.15;5.47;;;17.80;65.60;;;;;;5072650;28;20040;-79
2021/06/13 03:26:02;;;;;;;10.50;5.50;;;17.80;65.70;;;;;;5072433;28;20027;-79
2021/06/13 03:28:33;;;;;;;7.22;5.10;;;17.90;66.00;;;;;;5072807;28;20017;-79
2021/06/13 03:31:01;;;;;;;10.68;6.78;;;17.80;65.90;;;;;;5072848;28;20027;-80
2021/06/13 03:33:28;;;;;;;7.75;6.03;;;17.90;66.00;;;;;;5072659;28;20032;-80
2021/06/13 03:35:56;;;;;;;11.13;5.60;;;17.80;66.10;;;;;;5072699;28;20035;-81
2021/06/13 03:38:22;;;;;;;8.00;5.47;;;17.80;66.40;;;;;;5072728;28;20017;-80
2021/06/13 03:40:50;;;;;;;11.45;6.93;;;17.80;66.40;;;;;;5072767;28;20033;-81
2021/06/13 03:43:18;;;;;;;11.55;6.57;;;17.80;66.60;;;;;;5072580;28;20115;-80
2021/06/13 03:45:44;;;;;;;10.15;6.30;;;17.70;66.90;;;;;;5072588;28;20024;-80
2021/06/13 03:48:11;;;;;;;10.20;6.13;;;17.70;67.30;;;;;;5072595;28;20062;-82
2021/06/13 03:50:37;;;;;;;8.82;5.88;;;17.70;67.50;;;;;;5072695;28;20028;-81
2021/06/13 03:53:03;;;;;;;9.25;6.72;;;17.70;67.70;;;;;;5072763;28;20021;-82
2021/06/13 03:55:29;;;;;;;9.15;7.18;;;17.70;67.60;;;;;;5072616;28;20048;-81
2021/06/13 03:57:56;;;;;;;8.45;5.95;;;17.60;67.70;;;;;;5072624;28;20032;-81
2021/06/13 04:00:24;;;;;;;8.25;5.68;;;17.60;67.70;;;;;;5072699;28;20125;-81
2021/06/13 04:02:50;;;;;;;10.18;6.32;;;17.70;67.70;;;;;;5072484;28;20051;-82
2021/06/13 04:05:18;;;;;;;12.75;7.35;;;17.70;67.60;;;;;;5072448;28;20029;-80
2021/06/13 04:07:44;;;;;;;9.98;6.93;;;17.70;67.60;;;;;;5072581;28;20028;-80
2021/06/13 04:10:12;;;;;;;8.75;5.63;;;17.50;68.10;;;;;;5072393;28;20354;-82
2021/06/13 04:12:40;;;;;;;9.65;6.28;;;17.50;68.60;;;;;;5072399;28;20035;-80
2021/06/13 04:15:07;;;;;;;7.28;5.38;;;17.60;68.60;;;;;;5072419;28;20017;-79
2021/06/13 04:17:34;;;;;;;9.50;6.28;;;17.60;68.40;;;;;;5072386;28;20020;-79
2021/06/13 04:20:01;;;;;;;12.77;7.18;;;17.70;68.00;;;;;;5072418;28;20033;-80
2021/06/13 04:22:27;;;;;;;10.30;7.22;;;17.70;67.70;;;;;;5072151;28;20037;-80
2021/06/13 04:24:54;;;;;;;14.10;7.40;;;17.80;67.40;;;;;;5072346;28;20103;-79
2021/06/13 04:27:26;;;;;;;15.70;7.80;;;17.80;67.40;;;;;;5072223;28;20027;-79
2021/06/13 04:29:51;;;;;;;12.13;7.80;;;17.70;67.90;;;;;;5072300;28;20028;-80
2021/06/13 04:32:19;;;;;;;12.85;7.82;;;17.60;68.10;;;;;;5072124;28;20017;-80
2021/06/13 04:34:45;;;;;;;9.95;7.43;;;17.40;68.00;;;;;;5072173;28;20501;-80
2021/06/13 04:37:10;;;;;;;10.88;7.18;;;17.50;68.20;;;;;;5073879;28;20027;-80
2021/06/13 04:39:37;;;;;;;14.45;7.78;;;17.50;68.30;;;;;;5075906;28;20431;-79
2021/06/13 04:42:05;;;;;;;10.32;6.93;;;17.40;68.30;;;;;;5075797;28;20024;-80
2021/06/13 04:44:31;;;;;;;15.13;7.22;;;17.40;68.40;;;;;;5075937;28;20060;-80
2021/06/13 04:46:56;;;;;;;12.88;7.93;;;17.40;68.50;;;;;;5075661;28;20037;-80
2021/06/13 04:49:22;;;;;;;12.15;8.10;;;17.50;68.70;;;;;;5075852;28;20545;-82
2021/06/13 04:51:52;;;;;;;11.90;7.25;;;17.40;68.70;;;;;;5075808;28;20028;-82
2021/06/13 04:54:30;;;;;;;14.95;7.90;;;17.40;68.70;;;;;;5075685;28;20032;-82
2021/06/13 04:57:16;;;;;;;11.43;7.00;;;17.50;68.90;;;;;;5075721;28;20044;-80
2021/06/13 04:59:42;;;;;;;10.50;7.15;;;17.50;69.40;;;;;;5075604;28;20033;-82
2021/06/13 05:02:08;;;;;;;11.85;7.65;;;17.40;69.60;;;;;;5075563;28;20037;-81
2021/06/13 05:04:33;;;;;;;10.50;7.55;;;17.40;69.50;;;;;;5075740;28;20020;-81
2021/06/13 05:07:03;;;;;;;12.20;7.70;;;17.40;69.80;;;;;;5075616;28;20388;-80
2021/06/13 05:09:30;;;;;;;10.50;7.40;;;17.40;69.70;;;;;;5075524;28;20165;-81
2021/06/13 05:11:56;;;;;;;11.05;6.75;;;17.50;69.60;;;;;;5075343;28;20021;-80
2021/06/13 05:14:21;;;;;;;9.40;6.75;;;17.40;69.70;;;;;;5075374;28;20097;-81
2021/06/13 05:16:47;;;;;;;9.18;6.95;;;17.30;69.40;;;;;;5075318;28;20025;-79
2021/06/13 05:19:12;;;;;;;14.57;6.93;;;17.30;69.80;;;;;;5075202;28;20021;-80
2021/06/13 05:21:38;;;;;;;10.32;6.93;;;17.40;69.70;;;;;;5075192;28;20057;-80
2021/06/13 05:24:04;;;;;;;13.88;7.03;;;17.30;69.40;;;;;;5073964;28;20031;-80
2021/06/13 05:26:30;;;;;;;12.02;7.80;;;17.30;70.40;;;;;;5075162;28;20024;-79
2021/06/13 05:28:56;;;;;;;12.27;7.53;;;17.40;69.10;;;;;;5075077;28;20086;-79
2021/06/13 05:31:22;;;;;;;14.38;7.20;;;17.50;69.20;;;;;;5073682;28;20152;-80
2021/06/13 05:33:48;;;;;;;14.27;7.53;;;17.50;68.50;;;;;;5075095;28;20063;-80
2021/06/13 05:36:14;;;;;;;9.27;7.15;;;17.50;68.20;;;;;;5075002;28;20059;-80
2021/06/13 05:38:41;;;;;;;12.98;6.50;;;17.70;68.00;;;;;;5075119;28;20544;-80
2021/06/13 05:41:07;;;;;;;11.32;6.47;;;17.80;67.70;;;;;;5074940;28;20024;-79
2021/06/13 05:43:33;;;;;;;11.68;6.88;;;17.70;67.40;;;;;;5074854;28;20039;-79
2021/06/13 05:46:01;;;;;;;11.93;6.65;;;17.80;67.10;;;;;;5074813;28;20611;-80
2021/06/13 05:48:27;;;;;;;9.77;6.10;;;17.70;66.90;;;;;;5074424;28;20027;-80
2021/06/13 05:50:53;;;;;;;13.00;6.82;;;17.80;67.10;;;;;;5075044;28;20020;-81
2021/06/13 05:53:18;;;;;;;15.60;7.50;;;17.90;66.50;;;;;;5074862;28;20389;-82
2021/06/13 05:55:44;;;;;;;12.75;6.90;;;17.80;66.40;;;;;;5075466;28;20093;-82
2021/06/13 05:58:11;;;;;;;11.43;6.60;;;17.70;67.00;;;;;;5077500;28;20031;-79
2021/06/13 06:00:38;;;;;;;15.38;6.90;;;17.70;66.80;;;;;;5076643;28;20032;-82
2021/06/13 06:03:04;;;;;;;10.32;6.00;;;17.70;66.80;;;;;;5079297;28;20113;-81
2021/06/13 06:05:30;;;;;;;9.23;6.18;;;17.60;66.80;;;;;;5088232;28;20020;-80
2021/06/13 06:07:56;;;;;;;14.55;6.60;;;17.60;66.70;;;;;;5080607;28;20024;-82
2021/06/13 06:10:24;;;;;;;10.70;6.13;;;17.80;66.20;;;;;;5081681;28;20017;-82
2021/06/13 06:12:51;;;;;;;13.88;6.90;;;17.80;65.90;;;;;;5079456;28;20040;-81
2021/06/13 06:15:19;;;;;;;9.25;6.30;;;17.80;66.50;;;;;;5079926;28;20035;-81
2021/06/13 06:17:46;;;;;;;9.98;6.10;;;17.90;66.50;;;;;;5074418;28;20397;-83
2021/06/13 06:20:14;;;;;;;15.63;6.55;;;18.00;65.80;;;;;;5074059;28;20043;-83
2021/06/13 06:22:39;;;;;;;11.50;6.50;;;18.10;65.10;;;;;;5073746;28;20021;-83
2021/06/13 06:25:07;;;;;;;12.35;6.72;;;18.10;65.00;;;;;;5073767;28;20077;-84
2021/06/13 06:27:32;;;;;;;12.15;5.85;;;18.20;65.00;;;;;;5073740;28;20032;-83
2021/06/13 06:29:58;;;;;;;12.18;6.80;;;18.30;64.50;;;;;;5073856;28;20492;-82
2021/06/13 06:32:23;;;;;;;10.68;6.63;;;18.30;63.60;;;;;;5073706;28;20107;-82
2021/06/13 06:34:49;;;;;;;12.70;6.38;;;18.30;62.90;;;;;;5072325;28;20094;-82
2021/06/13 06:37:15;;;;;;;8.98;5.65;;;18.20;62.30;;;;;;5073863;28;20420;-82
2021/06/13 06:39:40;;;;;;;7.93;4.47;;;18.30;61.70;;;;;;5073412;28;20027;-81
2021/06/13 06:42:06;;;;;;;9.38;5.53;;;18.60;61.20;;;;;;5073298;28;20040;-81
2021/06/13 06:44:32;;;;;;;10.50;5.53;;;18.80;60.10;;;;;;5073147;28;20029;-81
2021/06/13 06:47:02;;;;;;;10.38;5.68;;;18.70;59.20;;;;;;5073055;28;20044;-82
2021/06/13 06:49:34;;;;;;;8.00;4.85;;;18.70;59.60;;;;;;5073479;28;20023;-83
2021/06/13 06:52:00;;;;;;;11.55;5.10;;;18.80;59.30;;;;;;5073192;28;20095;-82
2021/06/13 06:54:26;;;;;;;11.05;5.63;;;19.00;58.60;;;;;;5073001;28;20465;-82
2021/06/13 06:56:52;;;;;;;8.50;5.07;;;18.90;58.00;;;;;;5071794;28;20098;-80
2021/06/13 06:59:18;;;;;;;7.15;4.93;;;19.20;58.00;;;;;;5072206;28;20028;-83
2021/06/13 07:01:44;;;;;;;11.23;5.10;;;19.20;57.60;;;;;;5073707;28;20028;-82
2021/06/13 07:04:09;;;;;;;7.97;4.45;;;18.80;57.50;;;;;;5073129;28;20036;-82
2021/06/13 07:06:35;;;;;;;10.70;5.65;;;19.00;58.10;;;;;;5073099;28;20025;-83
2021/06/13 07:09:01;;;;;;;9.38;5.25;;;19.20;56.90;;;;;;5073804;28;20035;-82
2021/06/13 07:11:27;;;;;;;10.68;5.63;;;19.30;56.60;;;;;;5073778;28;20020;-81
2021/06/13 07:13:52;;;;;;;12.40;5.65;;;19.20;56.40;;;;;;5072663;28;20070;-81
2021/06/13 07:16:18;;;;;;;9.63;5.32;;;19.20;57.00;;;;;;5073082;28;20020;-80
2021/06/13 07:18:43;;;;;;;11.13;5.90;;;19.40;56.30;;;;;;5074594;28;20033;-79
2021/06/13 07:21:09;;;;;;;8.48;4.78;;;19.20;56.50;;;;;;5078497;28;20032;-79
2021/06/13 07:23:34;;;;;;;13.07;5.20;;;19.40;55.70;;;;;;5079044;28;20116;-80
2021/06/13 07:26:01;;;;;;;15.27;6.82;;;19.60;55.50;;;;;;5076088;28;20024;-78
2021/06/13 07:28:29;;;;;;;10.88;5.35;;;19.70;54.70;;;;;;5073131;28;20020;-80
2021/06/13 07:30:55;;;;;;;11.10;4.88;;;19.70;54.40;;;;;;5072831;28;20028;-82
2021/06/13 07:33:23;;;;;;;12.40;5.20;;;19.80;54.30;;;;;;5072660;28;20024;-81
2021/06/13 07:35:49;;;;;;;10.82;5.65;;;19.80;55.10;;;;;;5072971;28;20473;-79
2021/06/13 07:38:14;;;;;;;10.40;5.28;;;19.70;54.80;;;;;;5072876;28;20109;-82
2021/06/13 07:40:40;;;;;;;10.52;5.68;;;19.70;54.20;;;;;;5072768;28;20020;-84
2021/06/13 07:43:06;;;;;;;17.10;5.95;;;19.50;54.70;;;;;;5071310;28;20068;-79
2021/06/13 07:45:31;;;;;;;12.45;5.40;;;19.60;57.10;;;;;;5072583;28;20043;-79
2021/06/13 07:47:57;;;;;;;16.85;5.60;;;19.90;58.80;;;;;;5072854;28;20461;-78
2021/06/13 07:50:22;;;;;;;14.88;4.82;;;20.10;57.60;;;;;;5072782;28;20020;-81
2021/06/13 07:52:49;;;;;;;13.77;5.38;;;20.20;55.90;;;;;;5073127;28;20029;-81
2021/06/13 07:55:16;;;;;;;11.85;5.60;;;20.50;56.10;;;;;;5072742;28;20042;-80
2021/06/13 07:57:43;;;;;;;8.52;4.07;;;20.40;53.80;;;;;;5071391;28;20385;-80
2021/06/13 08:00:15;;;;;;;9.10;4.28;;;20.40;54.70;;;;;;5072421;28;20074;-79
2021/06/13 08:02:41;;;;;;;7.78;3.50;;;20.70;55.90;;;;;;5072488;28;20028;-81
2021/06/13 08:05:10;;;;;;;7.30;4.20;;;21.10;55.60;;;;;;5072676;28;20024;-81
2021/06/13 08:07:36;;;;;;;8.65;3.70;;;21.50;54.00;;;;;;5072875;28;20064;-81
2021/06/13 08:10:04;;;;;;;6.85;3.47;;;21.80;51.90;;;;;;5071482;28;20376;-82
2021/06/13 08:12:29;;;;;;;11.30;4.88;;;22.10;50.40;;;;;;5076869;28;20036;-80
2021/06/13 08:14:55;;;;;;;11.15;4.68;;;22.30;48.20;;;;;;5075353;28;20127;-82
2021/06/13 08:17:20;;;;;;;9.13;4.65;;;21.70;48.90;;;;;;5076565;28;20614;-81
2021/06/13 08:19:47;;;;;;;12.52;4.63;;;21.40;49.80;;;;;;5076711;28;20028;-80
2021/06/13 08:22:12;;;;;;;12.05;5.65;;;21.50;51.10;;;;;;5076546;28;20036;-80
2021/06/13 08:24:38;;;;;;;8.68;4.40;;;21.30;49.60;;;;;;5076344;28;20334;-82
2021/06/13 08:27:05;;;;;;;10.10;5.85;;;21.30;50.90;;;;;;5076019;28;20032;-79
2021/06/13 08:29:31;;;;;;;11.30;5.60;;;21.30;48.90;;;;;;5076893;28;20039;-78
2021/06/13 08:31:56;;;;;;;19.05;6.72;;;20.90;49.90;;;;;;5075905;28;20107;-78
2021/06/13 08:34:23;;;;;;;9.70;6.72;;;21.00;49.80;;;;;;5076116;28;20040;-79
2021/06/13 08:36:48;;;;;;;11.50;6.70;;;20.80;50.00;;;;;;5076212;28;20028;-80
2021/06/13 08:39:15;;;;;;;10.68;5.90;;;20.70;50.80;;;;;;5076046;28;20024;-81
2021/06/13 08:41:40;;;;;;;12.73;8.05;;;20.40;51.40;;;;;;5075863;28;20096;-81
2021/06/13 08:44:06;;;;;;;13.27;7.68;;;20.40;51.10;;;;;;5076329;28;20123;-82
2021/06/13 08:46:32;;;;;;;11.75;6.65;;;20.40;51.30;;;;;;5074201;28;20048;-79
2021/06/13 08:48:58;;;;;;;8.20;5.55;;;20.60;51.70;;;;;;5074475;28;20044;-81
2021/06/13 08:51:23;;;;;;;8.55;5.10;;;20.90;51.00;;;;;;5074516;28;20060;-79
2021/06/13 08:53:50;;;;;;;10.38;5.60;;;21.20;50.20;;;;;;5075780;28;20384;-79
2021/06/13 08:56:17;;;;;;;12.00;6.40;;;21.40;49.40;;;;;;5075750;28;20149;-80
2021/06/13 08:58:43;;;;;;;7.97;5.22;;;21.30;49.40;;;;;;5073528;28;20037;-82
2021/06/13 09:01:11;;;;;;;6.97;4.78;;;21.20;49.40;;;;;;5072398;28;20035;-82
2021/06/13 09:03:37;;;;;;;11.70;5.50;;;21.40;49.50;;;;;;5074732;28;20028;-82
2021/06/13 09:06:03;;;;;;;9.70;5.43;;;21.50;48.70;;;;;;5075027;28;20028;-80
2021/06/13 09:08:49;;;;;;;7.28;4.03;;;21.60;48.90;;;;;;5075391;28;20029;-80
2021/06/13 09:11:33;;;;;;;6.30;4.45;;;21.60;48.50;;;;;;5075362;28;20519;-79
2021/06/13 09:14:15;;;;;;;8.70;5.03;;;21.90;49.00;;;;;;5074118;28;20024;-81
2021/06/13 09:16:47;;;;;;;7.70;4.70;;;21.90;47.90;;;;;;5074084;28;20025;-80
2021/06/13 09:19:13;;;;;;;8.88;4.50;;;22.00;48.20;;;;;;5075121;28;20035;-79
2021/06/13 09:21:40;;;;;;;7.63;3.55;;;22.00;47.70;;;;;;5074892;28;20044;-80
2021/06/13 09:24:22;;;;;;;9.02;4.65;;;22.20;47.80;;;;;;5073112;28;20040;-80
2021/06/13 09:26:48;;;;;;;8.82;3.92;;;22.50;46.70;;;;;;5075257;28;20032;-79
2021/06/13 09:29:14;;;;;;;6.60;4.82;;;22.70;47.30;;;;;;5075121;28;20186;-79
2021/06/13 09:31:40;;;;;;;7.72;3.90;;;23.00;46.80;;;;;;5073776;28;20092;-80
2021/06/13 09:34:16;;;;;;;8.35;4.10;;;23.10;45.30;;;;;;5078128;28;20025;-80
2021/06/13 09:36:42;;;;;;;7.18;3.47;;;23.00;43.80;;;;;;5074930;28;20040;-80
2021/06/13 09:39:11;;;;;;;6.97;3.80;;;23.10;44.00;;;;;;5075048;28;20020;-80
2021/06/13 09:41:40;;;;;;;6.85;4.07;;;23.20;44.40;;;;;;5075125;28;20165;-81
2021/06/13 09:44:12;;;;;;;8.98;4.03;;;23.50;43.80;;;;;;5075296;28;20545;-81
2021/06/13 09:46:40;;;;;;;4.60;2.80;;;23.40;45.10;;;;;;5074951;28;20049;-83
2021/06/13 09:49:11;;;;;;;4.90;2.90;;;23.60;44.50;;;;;;5073792;28;20111;-80
2021/06/13 09:51:45;;;;;;;8.75;3.70;;;23.80;43.70;;;;;;5075098;28;20025;-80
2021/06/13 09:54:18;;;;;;;5.43;3.30;;;23.90;44.40;;;;;;5074941;28;20043;-80
2021/06/13 09:56:44;;;;;;;5.68;3.35;;;24.00;43.50;;;;;;5074953;28;20063;-81
2021/06/13 09:59:18;;;;;;;6.03;3.95;;;24.10;42.90;;;;;;5074985;28;20036;-81
2021/06/13 10:01:51;;;;;;;6.97;4.18;;;24.10;41.30;;;;;;5074808;28;20612;-80
2021/06/13 10:04:20;;;;;;;5.47;3.35;;;24.00;40.00;;;;;;5074854;28;20508;-83
2021/06/13 10:06:55;;;;;;;6.45;2.90;;;23.80;39.90;;;;;;5074956;28;20025;-80
2021/06/13 10:09:22;;;;;;;8.73;4.05;;;23.70;39.40;;;;;;5075003;28;20030;-79
2021/06/13 10:11:50;;;;;;;7.20;3.35;;;23.60;39.70;;;;;;5074998;28;20074;-79
2021/06/13 10:14:17;;;;;;;11.82;3.50;;;23.30;39.30;;;;;;5074681;28;20057;-83
2021/06/13 10:16:50;;;;;;;5.88;2.97;;;22.90;39.00;;;;;;5073568;28;20032;-81
2021/06/13 10:19:18;;;;;;;3.30;2.38;;;22.80;39.80;;;;;;5074922;28;20377;-81
2021/06/13 10:21:49;;;;;;;4.60;2.58;;;23.10;39.00;;;;;;5074464;28;20024;-81
2021/06/13 10:24:18;;;;;;;6.82;3.70;;;23.40;40.50;;;;;;5074291;28;20032;-82
2021/06/13 10:26:49;;;;;;;5.40;2.90;;;23.70;41.00;;;;;;5074145;28;20019;-81
2021/06/13 10:29:16;;;;;;;6.22;2.92;;;24.00;40.40;;;;;;5072980;28;20434;-82
2021/06/13 10:31:44;;;;;;;7.88;3.28;;;24.10;38.60;;;;;;5074108;28;20020;-80
2021/06/13 10:34:09;;;;;;;6.90;3.28;;;24.30;38.60;;;;;;5073983;28;20024;-81
2021/06/13 10:36:39;;;;;;;5.32;3.13;;;24.40;39.20;;;;;;5072480;28;20028;-81
2021/06/13 10:39:07;;;;;;;9.25;3.78;;;24.60;39.40;;;;;;5073656;28;20025;-82
2021/06/13 10:41:33;;;;;;;7.32;3.42;;;24.80;39.50;;;;;;5073787;28;20471;-81
2021/06/13 10:44:04;;;;;;;6.22;3.20;;;24.60;39.20;;;;;;5073726;28;20067;-80
2021/06/13 10:46:31;;;;;;;5.00;2.95;;;24.60;39.10;;;;;;5073649;28;20044;-81
2021/06/13 10:48:59;;;;;;;3.65;2.22;;;24.50;37.70;;;;;;5073723;28;20495;-80
2021/06/13 10:51:29;;;;;;;4.25;2.42;;;24.60;37.70;;;;;;5073604;28;20024;-81
2021/06/13 10:54:22;;;;;;;5.25;2.17;;;24.80;36.80;;;;;;5073865;28;20490;-80
2021/06/13 10:56:48;;;;;;;3.17;2.22;;;25.10;35.30;;;;;;5076677;28;20021;-79
2021/06/13 10:59:18;;;;;;;3.55;2.00;;;25.30;34.70;;;;;;5074927;28;20416;-80
2021/06/13 11:01:57;;;;;;;4.55;2.10;;;25.60;33.80;;;;;;5073840;28;20064;-80
2021/06/13 11:04:41;;;;;;;2.97;1.85;;;25.80;33.70;;;;;;5074043;28;20392;-80
2021/06/13 11:07:07;;;;;;;6.35;1.90;;;26.00;31.80;;;;;;5073463;28;20013;-81
2021/06/13 11:09:33;;;;;;;5.97;2.05;;;25.90;30.00;;;;;;5073503;28;20040;-84
2021/06/13 11:11:58;;;;;;;8.43;3.10;;;25.40;30.50;;;;;;5073643;28;20017;-83
2021/06/13 11:14:29;;;;;;;4.78;1.95;;;25.20;31.50;;;;;;5073765;28;20029;-83
2021/06/13 11:16:59;;;;;;;2.58;1.90;;;25.10;33.10;;;;;;5073425;28;20028;-83
2021/06/13 11:19:32;;;;;;;4.82;2.03;;;25.20;33.00;;;;;;5073210;28;20029;-82
2021/06/13 11:22:16;;;;;;;6.93;2.50;;;25.60;33.40;;;;;;5073459;28;20028;-82
2021/06/13 11:24:50;;;;;;;4.57;2.10;;;25.80;33.30;;;;;;5073082;28;20024;-82
2021/06/13 11:27:15;;;;;;;4.18;1.95;;;25.80;32.30;;;;;;5072013;28;20373;-83
2021/06/13 11:29:51;;;;;;;4.28;2.13;;;26.10;32.80;;;;;;5073214;28;20485;-82
2021/06/13 11:32:37;;;;;;;8.98;2.67;;;26.30;32.90;;;;;;5071925;28;20099;-82
2021/06/13 11:35:22;;;;;;;5.10;1.88;;;26.40;31.70;;;;;;5073058;28;20031;-82
2021/06/13 11:37:48;;;;;;;5.88;2.65;;;26.50;30.30;;;;;;5073099;28;20497;-82
2021/06/13 11:40:29;;;;;;;5.93;2.45;;;26.50;28.80;;;;;;5073102;28;20039;-80
2021/06/13 11:43:12;;;;;;;6.03;3.13;;;26.50;29.20;;;;;;5073226;28;20089;-80
2021/06/13 11:45:49;;;;;;;6.30;2.60;;;25.80;29.70;;;;;;5073176;28;20028;-80
2021/06/13 11:48:26;;;;;;;8.25;1.90;;;25.70;30.60;;;;;;5073009;28;20036;-84
2021/06/13 11:51:02;;;;;;;5.90;1.77;;;25.80;30.70;;;;;;5072826;28;20029;-82
2021/06/13 11:53:49;;;;;;;5.22;1.77;;;25.90;30.20;;;;;;5072059;28;20029;-85
2021/06/13 11:56:33;;;;;;;3.78;1.45;;;26.20;30.70;;;;;;5069888;28;20048;-81
2021/06/13 11:59:11;;;;;;;1.95;1.40;;;26.50;28.80;;;;;;5072032;28;20048;-82
2021/06/13 12:01:40;;;;;;;3.15;1.30;;;26.60;27.60;;;;;;5078547;28;20017;-90
2021/06/13 12:04:17;;;;;;;3.88;1.45;;;26.40;26.10;;;;;;5073080;28;20535;-91
2021/06/13 12:06:44;;;;;;;2.13;1.40;;;26.30;24.70;;;;;;5075687;28;20373;-89
2021/06/13 12:09:15;;;;;;;3.13;1.55;;;26.20;24.20;;;;;;5072299;28;20016;-83
2021/06/13 12:11:51;;;;;;;2.85;1.70;;;26.40;25.00;;;;;;5071601;28;20519;-84
2021/06/13 12:14:36;;;;;;;3.35;1.10;;;26.80;24.40;;;;;;5072649;28;20063;-82
2021/06/13 12:17:05;;;;;;;1.63;0.93;;;27.00;24.00;;;;;;5071184;28;20020;-82
2021/06/13 12:19:37;;;;;;;3.20;1.40;;;27.20;23.40;;;;;;5072500;28;20031;-81
2021/06/13 12:22:18;;;;;;;1.58;0.95;;;27.30;23.00;;;;;;5072553;28;20488;-81
2021/06/13 12:27:23;;;;;;;3.00;1.02;;;27.40;20.30;;;;;;5072624;28;20024;-82
2021/06/13 12:29:54;;;;;;;2.30;0.73;;;27.70;19.70;;;;;;5072672;28;20032;-83
2021/06/13 12:32:20;;;;;;;2.42;0.80;;;27.90;18.30;;;;;;5072843;28;20333;-82
2021/06/13 12:34:53;;;;;;;1.08;0.57;;;28.10;17.90;;;;;;5072639;28;20020;-81
2021/06/13 12:37:21;;;;;;;1.17;0.80;;;28.20;17.70;;;;;;5072410;28;20032;-81
2021/06/13 12:39:54;;;;;;;1.58;0.70;;;28.40;17.10;;;;;;5072515;28;20020;-80
2021/06/13 12:42:20;;;;;;;3.30;0.90;;;28.40;16.80;;;;;;5072444;28;20074;-80
2021/06/13 12:44:45;;;;;;;1.30;0.70;;;28.10;17.20;;;;;;5073125;28;20369;-83
2021/06/13 12:47:17;;;;;;;1.55;0.90;;;28.00;17.60;;;;;;5075711;28;20040;-79
2021/06/13 12:49:45;;;;;;;1.50;1.10;;;28.10;18.10;;;;;;5076061;28;20035;-80
2021/06/13 12:52:16;;;;;;;1.15;0.80;;;28.20;17.30;;;;;;5075508;28;20106;-80
2021/06/13 12:54:43;;;;;;;1.35;0.80;;;28.10;16.50;;;;;;5072541;28;20024;-80